createdAt,value
2023-01-29T00:00:33.189Z,58.70
2023-01-29T00:03:35.697Z,58.35
2023-01-29T00:06:36.998Z,57.86
2023-01-29T00:09:38.599Z,57.75
2023-01-29T00:12:40.068Z,58.03
2023-01-29T00:15:41.483Z,58.04
2023-01-29T00:18:43.760Z,58.28
2023-01-29T00:21:45.687Z,58.06
2023-01-29T00:24:47.099Z,58.41
2023-01-29T00:27:48.562Z,58.63
2023-01-29T00:30:50.027Z,57.91
2023-01-29T00:33:51.875Z,57.25
2023-01-29T00:37:04.931Z,58.00
2023-01-29T00:40:07.002Z,58.43
2023-01-29T00:43:27.106Z,58.26
2023-01-29T00:46:28.610Z,58.40
2023-01-29T00:49:38.144Z,57.95
2023-01-29T00:52:43.120Z,58.73
2023-01-29T00:55:44.953Z,58.02
2023-01-29T00:58:46.348Z,57.66
2023-01-29T01:02:06.508Z,58.29
2023-01-29T01:05:19.221Z,58.16
2023-01-29T01:08:39.349Z,57.95
2023-01-29T01:11:40.794Z,58.68
2023-01-29T01:14:43.175Z,58.91
2023-01-29T01:17:44.593Z,58.10
2023-01-29T01:20:51.431Z,58.69
2023-01-29T01:23:53.599Z,58.59
2023-01-29T01:26:55.066Z,58.90
2023-01-29T01:29:56.575Z,58.75
2023-01-29T01:32:58.063Z,58.37
2023-01-29T01:36:02.080Z,58.26
2023-01-29T01:39:33.644Z,58.43
2023-01-29T01:42:35.028Z,58.41
2023-01-29T01:45:38.016Z,57.82
2023-01-29T01:48:40.137Z,57.68
2023-01-29T01:51:47.919Z,58.57
2023-01-29T01:54:51.467Z,59.04
2023-01-29T01:57:59.324Z,59.01
2023-01-29T02:01:01.330Z,57.84
2023-01-29T02:04:25.873Z,58.63
2023-01-29T02:07:45.974Z,58.55
2023-01-29T02:10:48.764Z,58.51
2023-01-29T02:13:53.527Z,57.94
2023-01-29T02:17:01.359Z,58.16
2023-01-29T02:20:17.639Z,58.43
2023-01-29T02:23:31.528Z,57.99
2023-01-29T02:27:13.986Z,58.50
2023-01-29T02:30:44.909Z,58.09
2023-01-29T02:33:52.438Z,58.13
2023-01-29T02:37:11.923Z,57.63
2023-01-29T02:40:31.588Z,57.52
2023-01-29T02:43:55.243Z,57.87
2023-01-29T02:47:12.541Z,57.72
2023-01-29T02:50:34.366Z,57.70
2023-01-29T02:53:41.239Z,57.62
2023-01-29T02:56:56.859Z,58.08
2023-01-29T03:00:04.325Z,59.19
2023-01-29T03:03:16.019Z,58.70
2023-01-29T03:06:26.186Z,59.05
2023-01-29T03:09:41.729Z,58.01
2023-01-29T03:12:46.820Z,58.45
2023-01-29T03:16:01.354Z,57.61
2023-01-29T03:19:20.297Z,57.50
2023-01-29T03:22:23.585Z,58.05
2023-01-29T03:25:46.230Z,58.69
2023-01-29T03:29:07.474Z,58.62
2023-01-29T03:32:11.873Z,57.77
2023-01-29T03:35:20.927Z,57.86
2023-01-29T03:38:22.740Z,57.95
2023-01-29T03:41:38.328Z,57.55
2023-01-29T03:44:50.573Z,57.91
2023-01-29T03:48:03.669Z,57.45
2023-01-29T03:51:11.912Z,57.87
2023-01-29T03:54:39.275Z,58.05
2023-01-29T03:57:47.382Z,57.92
2023-01-29T04:01:02.730Z,57.81
2023-01-29T04:04:27.580Z,57.02
2023-01-29T04:07:33.411Z,57.75
2023-01-29T04:10:41.361Z,57.29
2023-01-29T04:13:43.658Z,57.45
2023-01-29T04:16:51.454Z,57.15
2023-01-29T04:20:11.249Z,57.53
2023-01-29T04:23:23.545Z,57.06
2023-01-29T04:26:28.375Z,56.83
2023-01-29T04:29:45.723Z,56.69
2023-01-29T04:32:59.755Z,57.42
2023-01-29T04:36:16.275Z,56.92
2023-01-29T04:39:27.206Z,56.98
2023-01-29T04:42:34.018Z,56.99
2023-01-29T04:45:54.152Z,56.49
2023-01-29T04:49:05.232Z,56.52
2023-01-29T04:52:20.224Z,56.91
2023-01-29T04:55:32.315Z,56.80
2023-01-29T04:58:44.473Z,56.92
2023-01-29T05:01:47.505Z,56.46
2023-01-29T05:04:50.001Z,56.31
2023-01-29T05:07:52.746Z,56.71
2023-01-29T05:10:57.056Z,56.72
2023-01-29T05:14:02.169Z,57.25
2023-01-29T05:17:09.599Z,57.63
2023-01-29T05:20:12.027Z,57.64
2023-01-29T05:23:22.189Z,57.82
2023-01-29T05:26:42.906Z,57.90
2023-01-29T05:29:46.771Z,58.48
2023-01-29T05:32:48.342Z,58.72
2023-01-29T05:35:50.521Z,58.84
2023-01-29T05:38:52.058Z,58.45
2023-01-29T05:41:53.501Z,58.46
2023-01-29T05:44:55.003Z,58.61
2023-01-29T05:47:57.867Z,58.00
2023-01-29T05:51:03.898Z,58.51
2023-01-29T05:54:05.516Z,57.76
2023-01-29T05:57:06.892Z,57.13
2023-01-29T06:00:09.249Z,57.91
2023-01-29T06:03:13.695Z,58.98
2023-01-29T06:06:15.473Z,58.76
2023-01-29T06:09:16.885Z,58.78
2023-01-29T06:12:18.304Z,58.86
2023-01-29T06:15:19.770Z,58.54
2023-01-29T06:18:21.235Z,58.91
2023-01-29T06:21:22.614Z,58.60
2023-01-29T06:24:24.083Z,58.96
2023-01-29T06:27:25.654Z,58.91
2023-01-29T06:30:28.339Z,58.80
2023-01-29T06:33:29.769Z,58.14
2023-01-29T06:36:31.205Z,58.69
2023-01-29T06:39:32.617Z,59.33
2023-01-29T06:42:37.180Z,59.90
2023-01-29T06:45:38.683Z,59.66
2023-01-29T06:48:40.111Z,59.60
2023-01-29T06:51:41.590Z,59.43
2023-01-29T06:54:43.027Z,58.43
2023-01-29T06:57:44.452Z,58.55
2023-01-29T07:00:46.080Z,58.29
2023-01-29T07:03:51.282Z,58.39
2023-01-29T07:06:52.669Z,58.25
2023-01-29T07:09:54.086Z,58.84
2023-01-29T07:12:55.574Z,58.93
2023-01-29T07:16:01.891Z,58.93
2023-01-29T07:19:03.516Z,58.63
2023-01-29T07:22:05.673Z,58.41
2023-01-29T07:25:07.926Z,59.03
2023-01-29T07:28:09.437Z,59.15
2023-01-29T07:31:13.216Z,58.61
2023-01-29T07:34:14.733Z,58.91
2023-01-29T07:37:16.125Z,59.90
2023-01-29T07:40:17.873Z,59.51
2023-01-29T07:43:19.494Z,59.11
2023-01-29T07:46:20.911Z,59.77
2023-01-29T07:49:22.298Z,59.35
2023-01-29T07:52:23.729Z,59.53
2023-01-29T07:55:25.663Z,59.37
2023-01-29T07:58:27.082Z,58.40
2023-01-29T08:01:28.817Z,59.27
2023-01-29T08:04:30.268Z,60.76
2023-01-29T08:07:31.740Z,59.66
2023-01-29T08:10:33.662Z,59.61
2023-01-29T08:13:35.163Z,59.73
2023-01-29T08:16:36.693Z,59.56
2023-01-29T08:19:38.156Z,58.49
2023-01-29T08:22:39.563Z,59.17
2023-01-29T08:25:41.390Z,58.26
2023-01-29T08:28:42.817Z,58.51
2023-01-29T08:31:44.245Z,59.01
2023-01-29T08:34:45.724Z,58.56
2023-01-29T08:38:01.264Z,57.89
2023-01-29T08:41:02.839Z,58.63
2023-01-29T08:44:04.700Z,57.99
2023-01-29T08:47:06.096Z,57.85
2023-01-29T08:50:08.167Z,57.92
2023-01-29T08:53:10.159Z,58.34
2023-01-29T08:56:11.663Z,58.78
2023-01-29T08:59:13.227Z,58.40
2023-01-29T09:02:14.685Z,58.73
2023-01-29T09:05:16.530Z,58.44
2023-01-29T09:08:18.076Z,58.42
2023-01-29T09:11:19.535Z,57.93
2023-01-29T09:14:21.083Z,57.63
2023-01-29T09:17:22.598Z,58.30
2023-01-29T09:20:24.043Z,56.95
2023-01-29T09:23:25.534Z,56.96
2023-01-29T09:26:27.012Z,57.13
2023-01-29T09:29:28.460Z,57.03
2023-01-29T09:35:54.167Z,56.27
2023-01-29T09:38:55.675Z,57.71
2023-01-29T09:42:13.875Z,57.23
2023-01-29T09:45:24.507Z,56.48
2023-01-29T09:48:30.173Z,57.21
2023-01-29T09:51:37.404Z,56.69
2023-01-29T09:54:59.584Z,57.08
2023-01-29T09:58:10.514Z,56.61
2023-01-29T10:01:46.844Z,57.18
2023-01-29T10:05:15.369Z,56.92
2023-01-29T10:08:29.455Z,55.41
2023-01-29T10:11:45.880Z,55.03
2023-01-29T10:14:53.197Z,55.35
2023-01-29T10:18:06.325Z,54.24
2023-01-29T10:21:29.654Z,54.17
2023-01-29T10:24:46.192Z,54.03
2023-01-29T10:27:53.964Z,53.92
2023-01-29T10:31:00.186Z,52.48
2023-01-29T10:34:27.686Z,53.11
2023-01-29T10:37:40.360Z,53.38
2023-01-29T10:40:50.610Z,52.90
2023-01-29T10:44:29.192Z,53.61
2023-01-29T10:47:50.743Z,53.35
2023-01-29T10:51:01.603Z,53.11
2023-01-29T10:54:09.124Z,54.06
2023-01-29T10:57:38.987Z,53.28
2023-01-29T11:00:41.664Z,53.33
2023-01-29T11:03:43.453Z,52.41
2023-01-29T11:06:45.411Z,52.81
2023-01-29T11:09:54.598Z,52.02
2023-01-29T11:12:57.169Z,51.99
2023-01-29T11:15:58.619Z,51.72
2023-01-29T11:19:01.719Z,53.46
2023-01-29T11:22:04.383Z,53.58
2023-01-29T11:25:18.508Z,53.02
2023-01-29T11:28:45.500Z,51.90
2023-01-29T11:31:47.355Z,52.06
2023-01-29T11:35:03.381Z,51.25
2023-01-29T11:38:16.968Z,50.37
2023-01-29T11:41:22.174Z,50.74
2023-01-29T11:44:28.524Z,50.39
2023-01-29T11:47:30.679Z,50.16
2023-01-29T11:50:33.631Z,51.46
2023-01-29T11:53:49.480Z,51.59
2023-01-29T11:56:51.829Z,51.23
2023-01-29T11:59:54.950Z,50.40
2023-01-29T12:02:59.654Z,50.92
2023-01-29T12:06:05.943Z,50.39
2023-01-29T12:09:16.869Z,50.92
2023-01-29T12:12:29.837Z,50.44
2023-01-29T12:15:31.320Z,50.12
2023-01-29T12:18:39.908Z,50.27
2023-01-29T12:22:20.525Z,49.63
2023-01-29T12:25:42.700Z,49.45
2023-01-29T12:29:22.009Z,50.04
2023-01-29T12:32:38.982Z,49.79
2023-01-29T12:36:31.454Z,49.05
2023-01-29T12:39:32.922Z,48.42
2023-01-29T12:42:36.764Z,48.71
2023-01-29T12:45:38.999Z,48.34
2023-01-29T12:48:43.604Z,47.89
2023-01-29T12:51:59.870Z,47.05
2023-01-29T12:55:11.132Z,47.37
2023-01-29T12:58:16.759Z,47.82
2023-01-29T13:01:28.909Z,47.75
2023-01-29T13:04:39.254Z,47.98
2023-01-29T13:07:47.290Z,48.35
2023-01-29T13:10:52.639Z,49.22
2023-01-29T13:14:06.723Z,49.64
2023-01-29T13:17:24.301Z,49.61
2023-01-29T13:20:30.498Z,50.33
2023-01-29T13:23:37.416Z,49.47
2023-01-29T13:26:40.596Z,50.33
2023-01-29T13:29:43.809Z,50.06
2023-01-29T13:32:54.172Z,50.02
2023-01-29T13:35:59.763Z,49.25
2023-01-29T13:39:07.503Z,49.06
2023-01-29T13:42:26.418Z,50.08
2023-01-29T13:45:27.853Z,49.45
2023-01-29T13:48:32.461Z,48.90
2023-01-29T13:51:36.595Z,48.98
2023-01-29T13:54:38.034Z,49.22
2023-01-29T13:57:39.448Z,49.23
2023-01-29T14:00:40.780Z,49.36
2023-01-29T14:04:04.059Z,49.44
2023-01-29T14:07:40.059Z,49.49
2023-01-29T14:10:43.071Z,49.64
2023-01-29T14:13:46.701Z,49.86
2023-01-29T14:16:49.862Z,49.98
2023-01-29T14:19:54.661Z,49.62
2023-01-29T14:22:59.488Z,49.68
2023-01-29T14:26:05.136Z,50.05
2023-01-29T14:29:14.494Z,49.84
2023-01-29T14:32:24.864Z,49.97
2023-01-29T14:35:30.539Z,51.22
2023-01-29T14:38:33.400Z,49.79
2023-01-29T14:41:36.120Z,49.76
2023-01-29T14:45:06.511Z,50.29
2023-01-29T14:48:11.032Z,50.02
2023-01-29T14:51:17.821Z,50.33
2023-01-29T14:54:28.149Z,50.12
2023-01-29T14:57:30.612Z,50.30
2023-01-29T15:00:37.140Z,50.97
2023-01-29T15:03:49.697Z,50.44
2023-01-29T15:07:14.658Z,50.10
2023-01-29T15:10:25.085Z,50.28
2023-01-29T15:13:37.893Z,50.62
2023-01-29T15:17:13.532Z,50.57
2023-01-29T15:20:34.609Z,51.43
2023-01-29T15:23:36.016Z,51.16
2023-01-29T15:26:37.483Z,50.97
2023-01-29T15:29:39.847Z,51.15
2023-01-29T15:32:41.298Z,51.81
2023-01-29T15:35:43.303Z,51.85
2023-01-29T15:38:44.766Z,51.49
2023-01-29T15:41:46.380Z,52.30
2023-01-29T15:44:48.008Z,52.58
2023-01-29T15:47:50.213Z,53.01
2023-01-29T15:50:54.687Z,52.69
2023-01-29T15:54:04.282Z,53.12
2023-01-29T15:57:06.185Z,53.19
2023-01-29T16:00:20.192Z,53.16
2023-01-29T16:03:28.157Z,53.44
2023-01-29T16:06:38.898Z,53.35
2023-01-29T16:09:40.476Z,53.75
2023-01-29T16:12:42.612Z,54.91
2023-01-29T16:15:56.048Z,54.97
2023-01-29T16:19:00.785Z,55.29
2023-01-29T16:22:05.750Z,55.56
2023-01-29T16:25:14.077Z,55.79
2023-01-29T16:28:17.045Z,55.98
2023-01-29T16:31:27.111Z,56.56
2023-01-29T16:34:43.463Z,56.99
2023-01-29T16:37:50.643Z,57.70
2023-01-29T16:41:28.251Z,57.66
2023-01-29T16:44:36.179Z,57.67
2023-01-29T16:47:41.345Z,58.11
2023-01-29T16:50:54.292Z,58.25
2023-01-29T16:54:11.119Z,58.86
2023-01-29T16:57:21.449Z,58.89
2023-01-29T17:00:28.553Z,58.93
2023-01-29T17:03:33.214Z,58.72
2023-01-29T17:06:35.074Z,58.13
2023-01-29T17:09:37.661Z,58.99
2023-01-29T17:12:39.217Z,59.07
2023-01-29T17:15:47.067Z,59.37
2023-01-29T17:18:48.564Z,59.55
2023-01-29T17:21:49.953Z,60.53
2023-01-29T17:24:51.552Z,60.27
2023-01-29T17:27:53.331Z,60.08
2023-01-29T17:31:05.872Z,58.62
2023-01-29T17:34:15.853Z,59.83
2023-01-29T17:37:17.275Z,60.04
2023-01-29T17:40:33.195Z,59.82
2023-01-29T17:43:34.766Z,60.77
2023-01-29T17:46:36.550Z,60.13
2023-01-29T17:49:37.984Z,60.52
2023-01-29T17:52:39.393Z,60.78
2023-01-29T17:55:40.827Z,60.82
2023-01-29T17:58:42.629Z,60.59
2023-01-29T18:01:45.565Z,60.94
2023-01-29T18:04:50.826Z,60.82
2023-01-29T18:07:54.681Z,61.32
2023-01-29T18:10:56.489Z,60.90
2023-01-29T18:13:58.425Z,60.72
2023-01-29T18:17:02.679Z,61.50
2023-01-29T18:20:13.011Z,61.20
2023-01-29T18:23:15.431Z,61.75
2023-01-29T18:26:17.181Z,60.97
2023-01-29T18:29:18.731Z,61.61
2023-01-29T18:32:20.193Z,61.26
2023-01-29T18:35:22.010Z,61.15
2023-01-29T18:38:23.988Z,61.40
2023-01-29T18:41:25.596Z,61.54
2023-01-29T18:44:29.544Z,61.50
2023-01-29T18:47:31.105Z,61.36
2023-01-29T18:50:33.111Z,61.60
2023-01-29T18:53:34.529Z,61.40
2023-01-29T18:56:35.917Z,61.77
2023-01-29T18:59:37.336Z,61.64
2023-01-29T19:02:38.991Z,60.95
2023-01-29T19:05:40.482Z,61.45
2023-01-29T19:08:42.875Z,61.55
2023-01-29T19:11:44.195Z,61.64
2023-01-29T19:14:45.700Z,61.69
2023-01-29T19:17:47.151Z,61.42
2023-01-29T19:20:49.962Z,60.34
2023-01-29T19:23:51.492Z,61.08
2023-01-29T19:26:53.389Z,61.28
2023-01-29T19:29:55.876Z,61.08
2023-01-29T19:32:57.420Z,61.85
2023-01-29T19:35:59.597Z,61.99
2023-01-29T19:39:00.994Z,61.57
2023-01-29T19:42:02.439Z,61.77
2023-01-29T19:45:05.422Z,61.51
2023-01-29T19:48:06.904Z,61.54
2023-01-29T19:51:10.627Z,60.77
2023-01-29T19:54:12.070Z,61.34
2023-01-29T19:57:13.501Z,61.01
2023-01-29T20:00:15.425Z,62.05
2023-01-29T20:03:17.027Z,62.40
2023-01-29T20:06:22.775Z,62.18
2023-01-29T20:09:24.229Z,62.36
2023-01-29T20:12:27.389Z,62.02
2023-01-29T20:15:28.869Z,62.49
2023-01-29T20:18:30.558Z,62.13
2023-01-29T20:21:31.991Z,61.66
2023-01-29T20:24:38.900Z,61.43
2023-01-29T20:27:40.328Z,61.29
2023-01-29T20:30:43.795Z,62.22
2023-01-29T20:33:45.279Z,63.11
2023-01-29T20:36:47.684Z,62.99
2023-01-29T20:39:49.075Z,62.77
2023-01-29T20:42:51.165Z,62.61
2023-01-29T20:45:57.185Z,63.05
2023-01-29T20:48:58.646Z,63.03
2023-01-29T20:52:00.135Z,62.79
2023-01-29T20:55:02.423Z,62.38
2023-01-29T20:58:06.569Z,62.46
2023-01-29T21:01:16.160Z,61.72
2023-01-29T21:04:17.594Z,62.34
2023-01-29T21:07:18.976Z,62.36
2023-01-29T21:10:23.492Z,62.35
2023-01-29T21:13:25.018Z,61.93
2023-01-29T21:16:26.849Z,62.14
2023-01-29T21:19:31.564Z,62.27
2023-01-29T21:22:33.310Z,61.97
2023-01-29T21:25:34.979Z,62.14
2023-01-29T21:28:36.559Z,62.44
2023-01-29T21:31:38.059Z,62.18
2023-01-29T21:34:39.893Z,62.65
2023-01-29T21:37:41.584Z,62.90
2023-01-29T21:40:42.955Z,62.97
2023-01-29T21:43:47.737Z,63.34
2023-01-29T21:46:49.154Z,63.24
2023-01-29T21:49:50.594Z,63.72
2023-01-29T21:52:54.395Z,63.68
2023-01-29T21:56:03.238Z,63.64
2023-01-29T21:59:04.914Z,63.44
2023-01-29T22:02:16.874Z,63.08
2023-01-29T22:05:20.136Z,63.20
2023-01-29T22:08:21.938Z,63.29
2023-01-29T22:11:23.391Z,63.41
2023-01-29T22:14:24.831Z,62.59
2023-01-29T22:17:26.353Z,62.26
2023-01-29T22:20:30.550Z,62.83
2023-01-29T22:23:32.606Z,62.27
2023-01-29T22:26:34.748Z,62.64
2023-01-29T22:29:39.203Z,62.81
2023-01-29T22:32:40.653Z,62.71
2023-01-29T22:35:42.133Z,63.93
2023-01-29T22:38:43.539Z,63.95
2023-01-29T22:41:45.029Z,63.74
2023-01-29T22:44:47.912Z,63.45
2023-01-29T22:47:49.342Z,63.95
2023-01-29T22:51:10.481Z,63.85
2023-01-29T22:54:12.140Z,64.45
2023-01-29T22:57:14.999Z,64.30
2023-01-29T23:00:17.383Z,63.66
2023-01-29T23:03:19.103Z,63.92
2023-01-29T23:06:23.819Z,63.60
2023-01-29T23:09:25.375Z,63.84
2023-01-29T23:12:26.791Z,63.66
2023-01-29T23:15:28.200Z,63.74
2023-01-29T23:18:29.646Z,63.90
2023-01-29T23:21:31.069Z,63.69
2023-01-29T23:24:32.699Z,64.10
2023-01-29T23:27:34.133Z,64.54
2023-01-29T23:30:35.610Z,64.14
2023-01-29T23:33:37.693Z,63.82
2023-01-29T23:36:39.081Z,64.46
2023-01-29T23:39:40.492Z,64.01
2023-01-29T23:42:41.861Z,64.32
2023-01-29T23:45:43.268Z,63.90
2023-01-29T23:48:44.664Z,64.25
2023-01-29T23:51:50.822Z,63.87
2023-01-29T23:54:52.205Z,63.43
2023-01-29T23:57:53.843Z,63.49
